createdAt,value
2018-06-28T00:01:15.261Z,17.90
2018-06-28T00:04:19.657Z,17.90
2018-06-28T00:07:23.272Z,17.90
2018-06-28T00:10:26.942Z,17.80
2018-06-28T00:13:30.582Z,17.80
2018-06-28T00:16:34.183Z,17.70
2018-06-28T00:22:41.151Z,17.60
2018-06-28T00:25:44.944Z,17.50
2018-06-28T00:28:48.656Z,17.50
2018-06-28T00:31:52.274Z,17.40
2018-06-28T00:34:55.913Z,17.40
2018-06-28T00:41:02.942Z,17.30
2018-06-28T00:44:06.550Z,17.30
2018-06-28T00:47:10.266Z,17.20
2018-06-28T00:50:13.882Z,17.20
2018-06-28T00:53:17.569Z,17.10
2018-06-28T00:56:21.223Z,17.10
2018-06-28T00:59:24.875Z,17.10
2018-06-28T01:02:28.477Z,17.10
2018-06-28T01:05:32.094Z,17.00
2018-06-28T01:08:35.851Z,17.00
2018-06-28T01:11:40.006Z,16.90
2018-06-28T01:14:43.598Z,16.90
2018-06-28T01:17:47.229Z,16.90
2018-06-28T01:20:50.849Z,16.80
2018-06-28T01:26:57.902Z,16.80
2018-06-28T01:30:01.558Z,16.70
2018-06-28T01:36:08.765Z,16.70
2018-06-28T01:45:24.127Z,16.60
2018-06-28T01:48:27.793Z,16.60
2018-06-28T01:51:31.430Z,16.60
2018-06-28T01:54:35.131Z,16.60
2018-06-28T01:57:38.827Z,16.50
2018-06-28T02:00:42.554Z,16.50
2018-06-28T02:03:46.168Z,16.50
2018-06-28T02:06:49.852Z,16.40
2018-06-28T02:09:53.464Z,16.30
2018-06-28T02:12:57.090Z,16.40
2018-06-28T02:16:01.206Z,16.30
2018-06-28T02:19:05.006Z,16.30
2018-06-28T02:22:08.602Z,16.30
2018-06-28T02:25:12.274Z,16.30
2018-06-28T02:28:15.982Z,16.20
2018-06-28T02:31:19.599Z,16.20
2018-06-28T02:34:23.200Z,16.20
2018-06-28T02:37:26.887Z,16.20
2018-06-28T02:40:30.486Z,16.20
2018-06-28T02:43:34.194Z,16.20
2018-06-28T02:46:37.799Z,16.20
2018-06-28T02:49:41.419Z,16.20
2018-06-28T02:52:45.032Z,16.10
2018-06-28T02:55:48.686Z,16.10
2018-06-28T02:58:52.285Z,16.10
2018-06-28T03:01:55.911Z,16.00
2018-06-28T03:04:59.635Z,16.00
2018-06-28T03:08:03.258Z,16.00
2018-06-28T03:14:10.246Z,16.00
2018-06-28T03:17:13.876Z,16.00
2018-06-28T03:20:17.515Z,16.00
2018-06-28T03:23:21.114Z,16.10
2018-06-28T03:26:24.775Z,16.10
2018-06-28T03:29:28.354Z,16.20
2018-06-28T03:32:32.022Z,16.30
2018-06-28T03:35:35.744Z,16.30
2018-06-28T03:38:39.365Z,16.60
2018-06-28T03:41:42.985Z,16.80
2018-06-28T03:47:50.033Z,17.00
2018-06-28T03:50:53.928Z,16.90
2018-06-28T03:53:57.561Z,16.90
2018-06-28T03:57:01.250Z,17.00
2018-06-28T04:00:04.886Z,17.00
2018-06-28T04:03:08.499Z,17.10
2018-06-28T04:06:12.164Z,17.20
2018-06-28T04:09:15.875Z,17.30
2018-06-28T04:12:19.552Z,17.40
2018-06-28T04:15:23.174Z,17.50
2018-06-28T04:18:26.880Z,17.60
2018-06-28T04:21:30.513Z,17.60
2018-06-28T04:24:34.183Z,17.20
2018-06-28T04:27:37.955Z,17.20
2018-06-28T04:30:41.613Z,17.10
2018-06-28T04:33:45.217Z,17.20
2018-06-28T04:36:48.896Z,17.30
2018-06-28T04:39:52.507Z,17.70
2018-06-28T04:42:56.121Z,18.20
2018-06-28T04:45:59.824Z,18.30
2018-06-28T04:49:03.466Z,18.30
2018-06-28T04:52:07.105Z,18.50
2018-06-28T04:55:10.723Z,18.80
2018-06-28T04:58:14.339Z,19.20
2018-06-28T05:01:18.024Z,19.50
2018-06-28T05:04:21.613Z,20.00
2018-06-28T05:07:25.248Z,20.60
2018-06-28T05:10:28.860Z,20.40
2018-06-28T05:13:32.480Z,20.70
2018-06-28T05:19:39.875Z,20.90
2018-06-28T05:25:46.945Z,20.70
2018-06-28T05:28:50.563Z,20.80
2018-06-28T05:31:54.214Z,21.10
2018-06-28T05:34:57.869Z,20.60
2018-06-28T05:38:01.511Z,20.60
2018-06-28T05:41:05.174Z,21.00
2018-06-28T05:44:08.790Z,20.80
2018-06-28T05:47:12.509Z,21.20
2018-06-28T05:50:16.017Z,21.30
2018-06-28T05:53:19.704Z,21.90
2018-06-28T05:56:23.410Z,22.10
2018-06-28T05:59:27.003Z,21.70
2018-06-28T06:05:33.982Z,21.70
2018-06-28T06:08:37.615Z,21.90
2018-06-28T06:14:44.703Z,22.70
2018-06-28T06:20:51.668Z,22.70
2018-06-28T06:23:55.284Z,22.80
2018-06-28T06:26:58.938Z,22.90
2018-06-28T06:30:02.633Z,23.10
2018-06-28T06:33:06.420Z,23.30
2018-06-28T06:36:10.132Z,23.70
2018-06-28T06:39:13.774Z,23.30
2018-06-28T06:42:17.578Z,24.00
2018-06-28T06:45:21.215Z,24.20
2018-06-28T06:48:24.820Z,24.80
2018-06-28T06:51:28.525Z,24.60
2018-06-28T06:54:32.127Z,25.00
2018-06-28T06:57:35.761Z,25.10
2018-06-28T07:03:42.798Z,24.30
2018-06-28T07:06:46.554Z,24.80
2018-06-28T07:09:56.523Z,24.80
2018-06-28T07:13:00.118Z,24.50
2018-06-28T07:16:03.840Z,25.10
2018-06-28T07:19:07.666Z,25.50
2018-06-28T07:22:11.304Z,25.30
2018-06-28T07:25:14.919Z,25.60
2018-06-28T07:31:23.403Z,25.50
2018-06-28T07:34:27.050Z,26.20
2018-06-28T07:40:34.159Z,26.00
2018-06-28T07:43:37.748Z,25.80
2018-06-28T07:46:41.515Z,25.50
2018-06-28T07:49:45.116Z,25.30
2018-06-28T07:52:48.754Z,25.50
2018-06-28T07:55:52.528Z,26.00
2018-06-28T07:58:56.149Z,26.40
2018-06-28T08:01:59.830Z,26.30
2018-06-28T08:05:03.589Z,26.50
2018-06-28T08:08:07.415Z,26.60
2018-06-28T08:11:11.150Z,26.50
2018-06-28T08:14:14.826Z,26.60
2018-06-28T08:17:18.446Z,26.90
2018-06-28T08:20:22.160Z,27.10
2018-06-28T08:23:25.873Z,26.80
2018-06-28T08:26:29.574Z,27.00
2018-06-28T08:29:33.210Z,26.70
2018-06-28T08:32:36.941Z,26.70
2018-06-28T08:35:40.574Z,26.60
2018-06-28T08:38:44.187Z,26.40
2018-06-28T08:41:47.886Z,26.50
2018-06-28T08:44:51.573Z,26.30
2018-06-28T08:47:55.338Z,26.80
2018-06-28T08:50:58.914Z,26.80
2018-06-28T08:54:02.806Z,26.70
2018-06-28T08:57:06.610Z,27.10
2018-06-28T09:00:17.174Z,27.30
2018-06-28T09:03:20.948Z,27.40
2018-06-28T09:06:24.589Z,27.40
2018-06-28T09:09:28.233Z,27.10
2018-06-28T09:12:31.834Z,27.10
2018-06-28T09:18:38.842Z,27.00
2018-06-28T09:21:42.454Z,26.80
2018-06-28T09:24:46.083Z,26.90
2018-06-28T09:27:49.696Z,27.00
2018-06-28T09:30:53.326Z,26.80
2018-06-28T09:33:56.927Z,26.80
2018-06-28T09:37:00.582Z,26.70
2018-06-28T09:40:04.213Z,26.50
2018-06-28T09:43:07.897Z,26.70
2018-06-28T09:46:11.606Z,26.80
2018-06-28T09:49:15.252Z,26.70
2018-06-28T09:55:22.216Z,27.10
2018-06-28T09:58:25.897Z,27.20
2018-06-28T10:01:29.527Z,26.80
2018-06-28T10:04:33.131Z,26.80
2018-06-28T10:07:37.967Z,27.10
2018-06-28T10:10:41.612Z,27.20
2018-06-28T10:13:45.277Z,27.20
2018-06-28T10:16:48.887Z,27.70
2018-06-28T10:19:52.586Z,27.50
2018-06-28T10:22:56.211Z,27.50
2018-06-28T10:29:03.196Z,27.30
2018-06-28T10:35:16.793Z,27.30
2018-06-28T10:38:20.459Z,27.40
2018-06-28T10:41:24.105Z,27.30
2018-06-28T10:44:27.829Z,26.90
2018-06-28T10:47:31.477Z,27.10
2018-06-28T10:50:35.068Z,27.00
2018-06-28T10:53:38.708Z,26.90
2018-06-28T10:56:42.360Z,26.90
2018-06-28T10:59:46.021Z,26.70
2018-06-28T11:02:49.632Z,26.80
2018-06-28T11:05:53.263Z,27.10
2018-06-28T11:08:56.905Z,27.00
2018-06-28T11:12:00.522Z,27.10
2018-06-28T11:15:04.601Z,26.90
2018-06-28T11:21:11.597Z,27.60
2018-06-28T11:24:15.199Z,27.70
2018-06-28T11:27:18.835Z,27.80
2018-06-28T11:30:22.505Z,27.30
2018-06-28T11:33:26.106Z,26.90
2018-06-28T11:39:33.075Z,26.90
2018-06-28T11:42:36.817Z,26.90
2018-06-28T11:45:40.402Z,26.80
2018-06-28T11:48:45.445Z,27.30
2018-06-28T11:54:52.623Z,27.50
2018-06-28T11:57:56.514Z,27.60
2018-06-28T12:01:00.248Z,27.50
2018-06-28T12:04:03.870Z,27.80
2018-06-28T12:07:07.567Z,27.50
2018-06-28T12:10:11.173Z,27.30
2018-06-28T12:13:14.783Z,27.10
2018-06-28T12:16:18.614Z,27.00
2018-06-28T12:19:22.561Z,27.20
2018-06-28T12:22:26.242Z,27.50
2018-06-28T12:25:29.837Z,27.70
2018-06-28T12:28:33.507Z,27.60
2018-06-28T12:31:37.151Z,27.20
2018-06-28T12:34:40.877Z,27.10
2018-06-28T12:37:44.493Z,26.80
2018-06-28T12:40:48.130Z,26.70
2018-06-28T12:43:51.753Z,26.80
2018-06-28T12:49:04.334Z,27.00
2018-06-28T12:52:19.513Z,26.80
2018-06-28T12:55:23.734Z,27.00
2018-06-28T12:58:27.413Z,26.80
2018-06-28T13:01:31.329Z,26.90
2018-06-28T13:07:38.534Z,26.90
2018-06-28T13:10:42.122Z,26.90
2018-06-28T13:13:45.778Z,27.00
2018-06-28T13:16:49.389Z,27.20
2018-06-28T13:19:53.021Z,26.90
2018-06-28T13:22:56.626Z,26.90
2018-06-28T13:26:00.272Z,27.00
2018-06-28T13:29:03.888Z,26.90
2018-06-28T13:32:07.517Z,27.00
2018-06-28T13:35:11.246Z,27.00
2018-06-28T13:38:15.060Z,27.10
2018-06-28T13:41:18.860Z,27.40
2018-06-28T13:44:22.324Z,27.50
2018-06-28T13:47:25.944Z,27.70
2018-06-28T13:50:29.589Z,27.80
2018-06-28T13:53:33.206Z,28.20
2018-06-28T13:56:36.846Z,27.90
2018-06-28T13:59:40.581Z,27.80
2018-06-28T14:02:44.199Z,27.60
2018-06-28T14:05:47.813Z,27.30
2018-06-28T14:08:51.468Z,27.30
2018-06-28T14:11:55.092Z,27.20
2018-06-28T14:18:02.143Z,27.20
2018-06-28T14:21:05.818Z,27.30
2018-06-28T14:24:09.458Z,27.20
2018-06-28T14:27:13.142Z,27.20
2018-06-28T14:30:16.799Z,27.30
2018-06-28T14:36:23.758Z,27.40
2018-06-28T14:39:27.516Z,27.10
2018-06-28T14:42:31.136Z,26.70
2018-06-28T14:45:34.870Z,26.50
2018-06-28T14:48:38.473Z,26.20
2018-06-28T14:51:42.271Z,26.20
2018-06-28T14:54:45.877Z,26.00
2018-06-28T14:57:49.524Z,25.90
2018-06-28T15:03:56.632Z,26.10
2018-06-28T15:07:00.213Z,26.10
2018-06-28T15:13:07.237Z,26.00
2018-06-28T15:16:10.885Z,26.20
2018-06-28T15:19:14.635Z,26.30
2018-06-28T15:25:21.613Z,26.70
2018-06-28T15:28:25.262Z,26.60
2018-06-28T15:31:28.933Z,26.40
2018-06-28T15:34:32.536Z,26.30
2018-06-28T15:40:39.477Z,26.50
2018-06-28T15:43:43.091Z,26.60
2018-06-28T15:46:46.718Z,26.20
2018-06-28T15:49:50.321Z,26.30
2018-06-28T15:52:53.983Z,26.20
2018-06-28T15:55:57.642Z,26.10
2018-06-28T15:59:01.244Z,26.20
2018-06-28T16:05:08.486Z,26.30
2018-06-28T16:08:17.168Z,26.30
2018-06-28T16:11:20.778Z,26.40
2018-06-28T16:14:24.386Z,26.50
2018-06-28T16:17:28.074Z,26.60
2018-06-28T16:20:31.780Z,26.40
2018-06-28T16:23:35.658Z,26.20
2018-06-28T16:26:39.330Z,26.00
2018-06-28T16:29:42.965Z,25.80
2018-06-28T16:32:47.566Z,25.80
2018-06-28T16:35:51.219Z,25.80
2018-06-28T16:38:54.824Z,25.80
2018-06-28T16:45:01.866Z,25.80
2018-06-28T16:48:05.632Z,25.70
2018-06-28T16:51:09.374Z,25.70
2018-06-28T16:54:12.987Z,25.60
2018-06-28T16:57:16.636Z,25.50
2018-06-28T17:00:21.062Z,25.50
2018-06-28T17:03:25.151Z,25.50
2018-06-28T17:06:28.789Z,25.50
2018-06-28T17:09:32.445Z,25.60
2018-06-28T17:12:36.279Z,25.60
2018-06-28T17:18:43.258Z,25.70
2018-06-28T17:21:46.932Z,25.50
2018-06-28T17:27:53.981Z,25.50
2018-06-28T17:34:01.123Z,25.40
2018-06-28T17:37:04.744Z,25.50
2018-06-28T17:40:08.393Z,25.40
2018-06-28T17:49:18.733Z,25.20
2018-06-28T17:52:22.421Z,25.10
2018-06-28T17:55:26.109Z,25.10
2018-06-28T17:58:29.749Z,25.00
2018-06-28T18:01:33.369Z,25.00
2018-06-28T18:04:37.046Z,25.00
2018-06-28T18:07:40.963Z,25.00
2018-06-28T18:10:44.579Z,24.90
2018-06-28T18:13:48.201Z,24.90
2018-06-28T18:19:55.314Z,24.80
2018-06-28T18:22:58.922Z,24.80
2018-06-28T18:26:02.667Z,24.70
2018-06-28T18:29:06.277Z,24.60
2018-06-28T18:32:09.976Z,24.60
2018-06-28T18:35:13.583Z,24.60
2018-06-28T18:38:17.224Z,24.50
2018-06-28T18:41:20.808Z,24.50
2018-06-28T18:44:24.485Z,24.50
2018-06-28T18:47:28.135Z,24.40
2018-06-28T18:50:31.825Z,24.40
2018-06-28T18:53:35.995Z,24.30
2018-06-28T18:56:39.645Z,24.20
2018-06-28T19:02:46.766Z,24.10
2018-06-28T19:05:50.416Z,24.00
2018-06-28T19:08:54.119Z,23.90
2018-06-28T19:11:57.719Z,23.90
2018-06-28T19:15:06.828Z,23.80
2018-06-28T19:18:10.410Z,23.70
2018-06-28T19:21:19.723Z,23.70
2018-06-28T19:24:23.497Z,23.60
2018-06-28T19:27:27.182Z,23.50
2018-06-28T19:30:36.287Z,23.50
2018-06-28T19:36:43.326Z,23.30
2018-06-28T19:39:52.415Z,23.20
2018-06-28T19:42:59.121Z,23.20
2018-06-28T19:46:02.776Z,23.10
2018-06-28T19:49:18.555Z,23.00
2018-06-28T19:55:31.406Z,22.90
2018-06-28T19:58:35.037Z,22.80
2018-06-28T20:01:44.151Z,22.70
2018-06-28T20:04:47.938Z,22.60
2018-06-28T20:07:51.591Z,22.50
2018-06-28T20:10:55.207Z,22.50
2018-06-28T20:14:04.265Z,22.50
2018-06-28T20:17:13.425Z,22.30
2018-06-28T20:20:19.062Z,22.30
2018-06-28T20:26:31.762Z,22.20
2018-06-28T20:29:41.199Z,22.10
2018-06-28T20:32:50.275Z,22.10
2018-06-28T20:35:54.032Z,22.00
2018-06-28T20:42:01.031Z,21.80
2018-06-28T20:45:04.839Z,21.80
2018-06-28T20:48:09.062Z,21.70
2018-06-28T20:51:12.810Z,21.60
2018-06-28T20:54:16.286Z,21.60
2018-06-28T21:00:24.100Z,21.50
2018-06-28T21:06:31.052Z,21.30
2018-06-28T21:09:34.673Z,21.20
2018-06-28T21:12:38.322Z,21.20
2018-06-28T21:15:41.979Z,21.10
2018-06-28T21:18:45.654Z,21.10
2018-06-28T21:21:49.269Z,21.10
2018-06-28T21:24:52.917Z,21.00
2018-06-28T21:27:56.530Z,21.00
2018-06-28T21:31:00.195Z,20.90
2018-06-28T21:34:03.869Z,20.90
2018-06-28T21:37:07.806Z,20.80
2018-06-28T21:40:11.418Z,20.70
2018-06-28T21:43:15.045Z,20.60
2018-06-28T21:46:18.742Z,20.60
2018-06-28T21:49:22.366Z,20.60
2018-06-28T21:52:25.990Z,20.50
2018-06-28T21:55:29.715Z,20.40
2018-06-28T21:58:33.331Z,20.40
2018-06-28T22:01:37.099Z,20.40
2018-06-28T22:04:40.719Z,20.30
2018-06-28T22:07:44.408Z,20.30
2018-06-28T22:10:47.962Z,20.20
2018-06-28T22:16:55.044Z,20.20
2018-06-28T22:19:58.677Z,20.10
2018-06-28T22:23:02.293Z,20.10
2018-06-28T22:26:05.999Z,20.00
2018-06-28T22:29:09.535Z,20.00
2018-06-28T22:32:13.168Z,19.90
2018-06-28T22:35:16.774Z,19.90
2018-06-28T22:41:23.802Z,19.80
2018-06-28T22:44:27.442Z,19.70
2018-06-28T22:47:31.097Z,19.70
2018-06-28T22:50:34.752Z,19.70
2018-06-28T22:53:38.386Z,19.60
2018-06-28T22:56:41.997Z,19.60
2018-06-28T22:59:45.635Z,19.50
2018-06-28T23:02:49.272Z,19.50
2018-06-28T23:05:52.887Z,19.50
2018-06-28T23:11:59.872Z,19.40
2018-06-28T23:15:03.496Z,19.40
2018-06-28T23:18:07.097Z,19.30
2018-06-28T23:24:14.085Z,19.40
2018-06-28T23:27:17.734Z,19.30
2018-06-28T23:30:21.338Z,19.20
2018-06-28T23:33:25.009Z,19.20
2018-06-28T23:36:28.617Z,19.20
2018-06-28T23:39:32.245Z,19.10
2018-06-28T23:42:36.674Z,19.10
2018-06-28T23:45:40.346Z,19.00
2018-06-28T23:48:43.949Z,18.90
2018-06-28T23:51:47.588Z,18.90
2018-06-28T23:54:51.211Z,18.80
2018-06-28T23:57:54.829Z,18.80
